Time;durP1;ratioP1;P1;durP2;ratioP2;P2;SDS_P1;SDS_P2;PMS_P1;PMS_P2;Temp;Humidity;BMP_temperature;BMP_pressure;BME280_temperature;BME280_humidity;BME280_pressure;Samples;Min_cycle;Max_cycle;Signal;HPM_P1;HPM_P2
2021/06/10 00:01:53;;;;;;;7.65;6.15;;;18.50;99.90;;;;;;5035686;28;20204;-74
2021/06/10 00:04:19;;;;;;;8.30;5.45;;;18.50;99.90;;;;;;5035834;28;20208;-75
2021/06/10 00:06:45;;;;;;;8.73;5.90;;;18.50;99.90;;;;;;5036017;28;20310;-76
2021/06/10 00:09:13;;;;;;;8.98;6.90;;;18.50;99.90;;;;;;5036022;28;20295;-76
2021/06/10 00:11:39;;;;;;;10.63;7.10;;;18.50;99.90;;;;;;5036081;28;20288;-75
2021/06/10 00:14:06;;;;;;;9.43;6.13;;;18.50;99.90;;;;;;5036418;28;20319;-73
2021/06/10 00:16:32;;;;;;;8.15;5.80;;;18.40;99.90;;;;;;5036088;28;20316;-74
2021/06/10 00:18:58;;;;;;;7.57;6.75;;;18.30;99.90;;;;;;5036453;28;20756;-76
2021/06/10 00:21:25;;;;;;;8.80;6.63;;;18.30;99.90;;;;;;5035669;28;20231;-75
2021/06/10 00:23:51;;;;;;;8.52;6.28;;;18.30;99.90;;;;;;5035986;28;20224;-73
2021/06/10 00:26:19;;;;;;;8.55;5.68;;;18.30;99.90;;;;;;5035140;28;20765;-75
2021/06/10 00:28:45;;;;;;;8.32;6.40;;;18.30;99.90;;;;;;5035564;28;20258;-74
2021/06/10 00:31:12;;;;;;;9.13;6.85;;;18.30;99.90;;;;;;5034084;28;20678;-75
2021/06/10 00:33:38;;;;;;;8.18;5.80;;;18.20;99.90;;;;;;5035471;28;20216;-75
2021/06/10 00:36:05;;;;;;;10.40;6.63;;;18.20;99.90;;;;;;5034982;28;20290;-76
2021/06/10 00:38:31;;;;;;;8.55;5.93;;;18.20;99.90;;;;;;5035368;28;20307;-76
2021/06/10 00:40:58;;;;;;;7.70;5.32;;;18.30;99.90;;;;;;5035187;28;20291;-77
2021/06/10 00:43:25;;;;;;;8.02;5.55;;;18.30;99.90;;;;;;5035134;28;20231;-74
2021/06/10 00:45:52;;;;;;;7.35;6.35;;;18.30;99.90;;;;;;5036958;28;20311;-76
2021/06/10 00:48:19;;;;;;;8.02;6.20;;;18.20;99.90;;;;;;5035225;28;20211;-76
2021/06/10 00:50:46;;;;;;;8.40;5.30;;;18.20;99.90;;;;;;5034551;28;20242;-76
2021/06/10 00:53:21;;;;;;;7.20;5.78;;;18.20;99.90;;;;;;5035966;28;20289;-76
2021/06/10 00:55:48;;;;;;;8.65;6.15;;;18.20;99.90;;;;;;5034881;28;20665;-76
2021/06/10 00:58:14;;;;;;;9.80;6.60;;;18.20;99.90;;;;;;5034906;28;20253;-76
2021/06/10 01:00:42;;;;;;;6.53;5.55;;;18.20;99.90;;;;;;5034640;28;20235;-76
2021/06/10 01:03:09;;;;;;;6.97;5.07;;;18.30;99.90;;;;;;5034198;28;20310;-76
2021/06/10 01:05:36;;;;;;;6.28;5.47;;;18.30;99.90;;;;;;5034165;28;20307;-76
2021/06/10 01:08:11;;;;;;;7.05;5.22;;;18.20;99.90;;;;;;5034346;28;20204;-76
2021/06/10 01:10:52;;;;;;;7.25;5.43;;;18.20;99.90;;;;;;5034100;28;20199;-76
2021/06/10 01:13:26;;;;;;;7.55;5.38;;;18.10;99.90;;;;;;5034026;28;20609;-76
2021/06/10 01:15:57;;;;;;;10.48;6.50;;;18.10;99.90;;;;;;5034339;28;20196;-76
2021/06/10 01:18:26;;;;;;;7.18;5.90;;;18.10;99.90;;;;;;5034308;28;20207;-75
2021/06/10 01:20:55;;;;;;;7.65;5.45;;;18.10;99.90;;;;;;5035278;28;20295;-74
2021/06/10 01:23:29;;;;;;;6.80;5.75;;;18.00;99.90;;;;;;5037054;28;20220;-75
2021/06/10 01:26:14;;;;;;;7.40;5.65;;;18.00;99.90;;;;;;5035799;28;20225;-76
2021/06/10 01:28:44;;;;;;;9.60;6.07;;;17.90;99.90;;;;;;5034144;28;20677;-75
2021/06/10 01:31:14;;;;;;;6.32;5.28;;;18.00;99.90;;;;;;5033629;28;20315;-74
2021/06/10 01:33:44;;;;;;;9.13;5.90;;;18.00;99.90;;;;;;5034013;28;20231;-76
2021/06/10 01:36:13;;;;;;;7.18;6.07;;;17.90;99.90;;;;;;5033694;28;20196;-74
2021/06/10 01:38:41;;;;;;;9.07;6.00;;;17.80;99.90;;;;;;5034076;28;20231;-74
2021/06/10 01:41:09;;;;;;;6.43;5.45;;;17.90;99.90;;;;;;5033851;28;20289;-77
2021/06/10 01:43:39;;;;;;;8.10;5.70;;;17.90;99.90;;;;;;5034072;28;20315;-75
2021/06/10 01:46:07;;;;;;;7.40;5.53;;;17.90;99.90;;;;;;5033791;28;20319;-75
2021/06/10 01:48:35;;;;;;;8.48;5.25;;;17.90;99.90;;;;;;5033441;28;20200;-75
2021/06/10 01:51:04;;;;;;;8.18;5.90;;;17.90;99.90;;;;;;5033617;28;20662;-75
2021/06/10 01:53:31;;;;;;;8.93;6.18;;;17.80;99.90;;;;;;5033794;28;20224;-76
2021/06/10 01:55:59;;;;;;;9.30;7.35;;;17.80;99.90;;;;;;5033982;28;20287;-76
2021/06/10 01:58:26;;;;;;;8.60;6.30;;;17.80;99.90;;;;;;5033845;28;20292;-76
2021/06/10 02:00:53;;;;;;;8.00;6.43;;;17.80;99.90;;;;;;5033162;28;20208;-76
2021/06/10 02:03:22;;;;;;;8.38;5.22;;;17.80;99.90;;;;;;5033030;28;20234;-74
2021/06/10 02:05:50;;;;;;;9.38;6.15;;;17.80;99.90;;;;;;5032991;28;20256;-74
2021/06/10 02:08:19;;;;;;;7.00;5.43;;;17.80;99.90;;;;;;5033455;28;20686;-78
2021/06/10 02:10:49;;;;;;;9.07;5.90;;;17.80;99.90;;;;;;5035556;28;20211;-77
2021/06/10 02:13:17;;;;;;;8.82;6.30;;;17.80;99.90;;;;;;5034790;28;20259;-77
2021/06/10 02:15:45;;;;;;;6.82;5.30;;;17.80;99.90;;;;;;5037821;28;20288;-77
2021/06/10 02:18:13;;;;;;;7.57;5.45;;;17.70;99.90;;;;;;5036173;28;20651;-76
2021/06/10 02:20:41;;;;;;;8.63;5.57;;;17.70;99.90;;;;;;5037026;28;20235;-76
2021/06/10 02:23:08;;;;;;;7.93;5.80;;;17.60;99.90;;;;;;5036395;28;20311;-76
2021/06/10 02:25:34;;;;;;;8.50;6.20;;;17.60;99.90;;;;;;5037082;28;20227;-76
2021/06/10 02:28:01;;;;;;;7.50;5.60;;;17.60;99.90;;;;;;5036284;28;20214;-77
2021/06/10 02:30:29;;;;;;;8.32;5.80;;;17.60;99.90;;;;;;5036360;28;20227;-76
2021/06/10 02:32:55;;;;;;;12.32;6.65;;;17.60;99.90;;;;;;5034929;28;20293;-75
2021/06/10 02:35:22;;;;;;;8.15;6.05;;;17.50;99.90;;;;;;5035392;28;20212;-77
2021/06/10 02:37:53;;;;;;;8.65;6.38;;;17.50;99.90;;;;;;5035636;28;20291;-76
2021/06/10 02:40:27;;;;;;;9.07;7.30;;;17.50;99.90;;;;;;5034964;28;20204;-76
2021/06/10 02:42:56;;;;;;;10.35;5.25;;;17.50;99.90;;;;;;5036223;28;20231;-76
2021/06/10 02:45:22;;;;;;;9.35;6.80;;;17.40;99.90;;;;;;5035433;28;20211;-76
2021/06/10 02:47:49;;;;;;;9.13;6.03;;;17.30;99.90;;;;;;5035583;28;20269;-77
2021/06/10 02:50:18;;;;;;;9.95;6.13;;;17.30;99.90;;;;;;5034996;28;20300;-76
2021/06/10 02:52:48;;;;;;;8.15;5.63;;;17.30;99.90;;;;;;5035191;28;20310;-76
2021/06/10 02:55:18;;;;;;;8.70;6.22;;;17.40;99.90;;;;;;5034785;28;20275;-76
2021/06/10 02:57:48;;;;;;;8.18;6.20;;;17.40;99.90;;;;;;5034624;28;20294;-76
2021/06/10 03:00:16;;;;;;;10.85;6.15;;;17.40;99.90;;;;;;5034478;28;20292;-76
2021/06/10 03:02:44;;;;;;;9.50;6.43;;;17.40;99.90;;;;;;5035440;28;20270;-76
2021/06/10 03:05:12;;;;;;;10.38;6.47;;;17.50;99.90;;;;;;5035967;28;20667;-76
2021/06/10 03:07:38;;;;;;;7.22;5.68;;;17.40;99.90;;;;;;5036064;28;20704;-76
2021/06/10 03:10:08;;;;;;;8.40;6.25;;;17.50;99.90;;;;;;5036008;28;20721;-76
2021/06/10 03:12:37;;;;;;;8.90;6.00;;;17.50;99.90;;;;;;5035839;28;20231;-76
2021/06/10 03:15:05;;;;;;;8.25;6.10;;;17.40;99.90;;;;;;5036013;28;20307;-76
2021/06/10 03:17:32;;;;;;;7.45;5.93;;;17.50;99.90;;;;;;5035099;28;20291;-76
2021/06/10 03:19:58;;;;;;;8.63;6.20;;;17.40;99.90;;;;;;5035106;28;20211;-76
2021/06/10 03:22:25;;;;;;;9.00;6.97;;;17.40;99.90;;;;;;5035147;28;20228;-76
2021/06/10 03:24:52;;;;;;;9.27;5.90;;;17.40;99.90;;;;;;5034591;28;20333;-77
2021/06/10 03:27:20;;;;;;;7.35;5.35;;;17.40;99.90;;;;;;5034582;28;20611;-75
2021/06/10 03:29:48;;;;;;;7.72;5.57;;;17.40;99.90;;;;;;5034722;28;20627;-76
2021/06/10 03:32:15;;;;;;;9.70;5.88;;;17.40;99.90;;;;;;5033762;28;20228;-77
2021/06/10 03:34:42;;;;;;;12.73;6.32;;;17.30;99.90;;;;;;5034707;28;20725;-77
2021/06/10 03:37:10;;;;;;;8.98;6.07;;;17.20;99.90;;;;;;5033697;28;20294;-77
2021/06/10 03:39:39;;;;;;;9.65;6.15;;;17.20;99.90;;;;;;5033718;28;20207;-76
2021/06/10 03:42:06;;;;;;;9.18;5.65;;;17.20;99.90;;;;;;5033515;28;20298;-76
2021/06/10 03:44:34;;;;;;;8.40;5.95;;;17.00;99.90;;;;;;5034059;28;20287;-76
2021/06/10 03:47:02;;;;;;;8.73;5.55;;;16.80;99.90;;;;;;5033753;28;20225;-76
2021/06/10 03:49:29;;;;;;;7.35;5.65;;;16.80;99.90;;;;;;5033911;28;20609;-77
2021/06/10 03:51:56;;;;;;;9.50;6.28;;;16.90;99.90;;;;;;5033405;28;20248;-76
2021/06/10 03:54:22;;;;;;;6.85;5.57;;;17.00;99.90;;;;;;5033758;28;20605;-77
2021/06/10 03:56:49;;;;;;;7.32;5.53;;;16.90;99.90;;;;;;5033634;28;20203;-75
2021/06/10 03:59:15;;;;;;;9.13;5.55;;;17.00;99.90;;;;;;5033734;28;20200;-76
2021/06/10 04:01:42;;;;;;;7.65;5.95;;;17.00;99.90;;;;;;5033540;28;20211;-76
2021/06/10 04:04:10;;;;;;;9.65;6.60;;;17.10;99.90;;;;;;5034042;28;20226;-77
2021/06/10 04:06:38;;;;;;;6.78;5.43;;;17.10;99.90;;;;;;5038567;28;20291;-78
2021/06/10 04:09:07;;;;;;;8.02;5.50;;;17.20;99.90;;;;;;5045451;28;20208;-76
2021/06/10 04:11:33;;;;;;;6.90;5.15;;;17.30;99.90;;;;;;5039176;28;20207;-76
2021/06/10 04:14:00;;;;;;;7.35;5.88;;;17.30;99.90;;;;;;5043931;28;20566;-78
2021/06/10 04:16:27;;;;;;;9.23;6.43;;;17.10;99.90;;;;;;5045926;28;20207;-79
2021/06/10 04:18:54;;;;;;;8.30;5.32;;;17.00;99.90;;;;;;5045632;28;20249;-77
2021/06/10 04:21:22;;;;;;;6.40;5.18;;;16.90;99.90;;;;;;5044107;28;20665;-78
2021/06/10 04:23:49;;;;;;;6.78;5.53;;;17.00;99.90;;;;;;5038543;28;20709;-76
2021/06/10 04:26:16;;;;;;;9.65;6.07;;;17.00;99.90;;;;;;5044197;28;20222;-79
2021/06/10 04:28:45;;;;;;;7.25;5.53;;;17.00;99.90;;;;;;5043158;28;20218;-78
2021/06/10 04:31:11;;;;;;;10.30;6.32;;;17.00;99.90;;;;;;5043917;28;20212;-78
2021/06/10 04:33:37;;;;;;;7.32;5.65;;;16.80;99.90;;;;;;5044176;28;20265;-78
2021/06/10 04:36:04;;;;;;;6.28;5.65;;;16.80;99.90;;;;;;5042950;28;20295;-78
2021/06/10 04:38:32;;;;;;;7.40;5.60;;;16.70;99.90;;;;;;5044554;28;20289;-78
2021/06/10 04:40:59;;;;;;;11.95;7.40;;;16.70;99.90;;;;;;5043878;28;20279;-77
2021/06/10 04:43:25;;;;;;;10.05;7.20;;;16.60;99.90;;;;;;5043992;28;20250;-77
2021/06/10 04:45:52;;;;;;;9.60;7.07;;;16.60;99.90;;;;;;5044783;28;20231;-78
2021/06/10 04:48:18;;;;;;;10.75;7.65;;;16.50;99.90;;;;;;5044741;28;20238;-78
2021/06/10 04:50:44;;;;;;;11.82;6.72;;;16.40;99.90;;;;;;5042379;28;20274;-78
2021/06/10 04:53:11;;;;;;;8.18;6.65;;;16.40;99.90;;;;;;5045204;28;20259;-78
2021/06/10 04:55:40;;;;;;;8.80;6.63;;;16.40;99.90;;;;;;5045013;28;20286;-78
2021/06/10 04:58:06;;;;;;;8.63;6.15;;;16.40;99.90;;;;;;5045595;28;20208;-78
2021/06/10 05:00:33;;;;;;;7.72;6.13;;;16.40;99.90;;;;;;5044525;28;20241;-78
2021/06/10 05:03:00;;;;;;;9.50;7.40;;;16.40;99.90;;;;;;5045946;28;20729;-78
2021/06/10 05:05:27;;;;;;;8.82;5.93;;;16.40;99.90;;;;;;5045272;28;20260;-78
2021/06/10 05:07:53;;;;;;;8.07;6.28;;;16.50;99.90;;;;;;5043285;28;20294;-78
2021/06/10 05:10:19;;;;;;;11.98;7.30;;;16.50;99.90;;;;;;5044575;28;20275;-78
2021/06/10 05:12:47;;;;;;;10.68;7.75;;;16.50;99.90;;;;;;5044637;28;20644;-78
2021/06/10 05:15:14;;;;;;;10.93;6.68;;;16.50;99.90;;;;;;5044970;28;20210;-78
2021/06/10 05:17:40;;;;;;;9.90;7.38;;;16.50;99.90;;;;;;5042742;28;20253;-77
2021/06/10 05:20:08;;;;;;;9.95;7.32;;;16.60;99.90;;;;;;5043755;28;20294;-78
2021/06/10 05:22:35;;;;;;;8.20;6.07;;;16.60;99.90;;;;;;5045131;28;20262;-78
2021/06/10 05:25:01;;;;;;;10.10;6.75;;;16.60;99.90;;;;;;5044814;28;20664;-78
2021/06/10 05:27:27;;;;;;;9.43;6.13;;;16.70;99.90;;;;;;5044952;28;20320;-77
2021/06/10 05:29:55;;;;;;;9.18;6.05;;;16.70;99.90;;;;;;5041706;28;20202;-78
2021/06/10 05:32:22;;;;;;;8.55;6.90;;;16.70;99.90;;;;;;5043345;28;20230;-78
2021/06/10 05:34:48;;;;;;;7.47;6.13;;;16.70;99.90;;;;;;5041772;28;20211;-78
2021/06/10 05:37:15;;;;;;;9.20;6.45;;;16.90;99.90;;;;;;5041507;28;20213;-78
2021/06/10 05:39:41;;;;;;;10.07;6.78;;;17.00;99.90;;;;;;5043462;28;20706;-78
2021/06/10 05:42:08;;;;;;;11.70;7.13;;;17.10;99.90;;;;;;5038820;28;20238;-78
2021/06/10 05:44:34;;;;;;;10.07;6.75;;;17.30;99.90;;;;;;5043673;28;20210;-78
2021/06/10 05:47:02;;;;;;;9.90;6.45;;;17.40;99.90;;;;;;5043192;28;20650;-78
2021/06/10 05:49:29;;;;;;;9.65;6.55;;;17.40;99.90;;;;;;5044020;28;20333;-78
2021/06/10 05:51:55;;;;;;;11.95;6.75;;;17.30;99.90;;;;;;5044224;28;20613;-78
2021/06/10 05:54:22;;;;;;;8.05;6.03;;;17.40;99.90;;;;;;5043307;28;20295;-78
2021/06/10 05:56:50;;;;;;;9.15;6.95;;;17.40;99.90;;;;;;5044670;28;20279;-78
2021/06/10 05:59:16;;;;;;;9.27;6.70;;;17.30;99.90;;;;;;5042980;28;20242;-78
2021/06/10 06:01:43;;;;;;;10.30;6.57;;;17.40;99.90;;;;;;5042826;28;20781;-78
2021/06/10 06:04:10;;;;;;;7.78;5.88;;;17.40;99.90;;;;;;5043643;28;20318;-78
2021/06/10 06:06:38;;;;;;;8.88;6.97;;;17.50;99.90;;;;;;5043382;28;20216;-78
2021/06/10 06:09:08;;;;;;;9.15;6.13;;;17.60;99.90;;;;;;5043377;28;20210;-78
2021/06/10 06:11:34;;;;;;;8.38;5.95;;;17.60;99.90;;;;;;5042263;28;20204;-78
2021/06/10 06:14:07;;;;;;;9.15;6.55;;;17.70;99.90;;;;;;5043077;28;20244;-78
2021/06/10 06:16:34;;;;;;;9.90;6.70;;;17.80;99.90;;;;;;5044017;28;20207;-78
2021/06/10 06:19:02;;;;;;;10.95;6.50;;;17.90;99.90;;;;;;5044566;28;20246;-78
2021/06/10 06:21:29;;;;;;;9.52;6.95;;;18.00;99.90;;;;;;5043876;28;20208;-78
2021/06/10 06:23:57;;;;;;;10.23;7.13;;;18.20;99.90;;;;;;5044007;28;20278;-78
2021/06/10 06:26:23;;;;;;;8.60;6.05;;;18.30;99.90;;;;;;5044151;28;20315;-78
2021/06/10 06:28:50;;;;;;;11.75;6.72;;;18.40;99.90;;;;;;5045257;28;20298;-78
2021/06/10 06:31:16;;;;;;;11.85;6.95;;;18.40;99.90;;;;;;5044419;28;20216;-78
2021/06/10 06:33:42;;;;;;;9.95;6.20;;;18.50;99.90;;;;;;5043777;28;20259;-78
2021/06/10 06:36:09;;;;;;;10.82;6.70;;;18.50;99.90;;;;;;5043683;28;20204;-78
2021/06/10 06:38:37;;;;;;;9.63;7.30;;;18.60;99.90;;;;;;5044167;28;20228;-78
2021/06/10 06:41:03;;;;;;;7.60;6.07;;;18.70;99.90;;;;;;5042716;28;20291;-78
2021/06/10 06:43:31;;;;;;;9.93;6.35;;;18.80;99.90;;;;;;5044010;28;20263;-79
2021/06/10 06:45:57;;;;;;;10.15;6.82;;;19.00;99.90;;;;;;5044478;28;20299;-78
2021/06/10 06:48:24;;;;;;;7.00;5.88;;;19.20;99.90;;;;;;5043856;28;20318;-78
2021/06/10 06:50:50;;;;;;;9.10;6.97;;;19.30;99.90;;;;;;5043853;28;20253;-78
2021/06/10 06:53:16;;;;;;;8.40;6.23;;;19.40;99.90;;;;;;5042895;28;20528;-79
2021/06/10 06:55:44;;;;;;;8.30;6.10;;;19.60;99.90;;;;;;5043741;28;20471;-79
2021/06/10 06:58:10;;;;;;;8.77;6.50;;;19.90;99.90;;;;;;5043451;28;20441;-79
2021/06/10 07:00:37;;;;;;;7.93;6.00;;;20.20;99.90;;;;;;5043774;28;20533;-79
2021/06/10 07:03:03;;;;;;;8.50;6.97;;;20.50;99.90;;;;;;5043126;28;20469;-79
2021/06/10 07:05:30;;;;;;;10.00;7.30;;;20.60;99.90;;;;;;5044221;28;20488;-78
2021/06/10 07:07:56;;;;;;;8.20;7.00;;;20.80;99.90;;;;;;5043259;28;20488;-79
2021/06/10 07:10:22;;;;;;;8.80;6.40;;;20.90;99.90;;;;;;5043047;28;20539;-79
2021/06/10 07:12:50;;;;;;;9.10;6.93;;;20.90;99.90;;;;;;5043834;28;20567;-78
2021/06/10 07:15:17;;;;;;;10.47;7.63;;;21.00;99.90;;;;;;5043531;28;20852;-79
2021/06/10 07:17:43;;;;;;;10.47;7.50;;;21.10;99.90;;;;;;5042974;28;20505;-78
2021/06/10 07:20:11;;;;;;;10.03;6.93;;;21.20;99.90;;;;;;5043097;28;20500;-79
2021/06/10 07:22:38;;;;;;;8.80;6.60;;;21.20;99.90;;;;;;5033621;28;20545;-78
2021/06/10 07:25:06;;;;;;;8.40;6.60;;;21.30;99.90;;;;;;5060816;28;20460;-80
2021/06/10 07:27:33;;;;;;;7.50;5.90;;;21.40;99.90;;;;;;5058937;28;20515;-78
2021/06/10 07:30:01;;;;;;;8.77;6.63;;;21.40;99.90;;;;;;5059621;28;20532;-78
2021/06/10 07:32:28;;;;;;;8.73;6.10;;;21.40;99.90;;;;;;5063200;28;20543;-78
2021/06/10 07:34:54;;;;;;;7.73;6.47;;;21.40;99.90;;;;;;5061867;28;20472;-79
2021/06/10 07:37:21;;;;;;;7.37;5.83;;;21.40;99.90;;;;;;5057179;28;20484;-78
2021/06/10 07:39:47;;;;;;;8.67;6.47;;;21.40;99.90;;;;;;5060767;28;20469;-78
2021/06/10 07:42:13;;;;;;;7.50;6.40;;;21.40;99.90;;;;;;5063609;28;20941;-78
2021/06/10 07:44:40;;;;;;;8.73;6.43;;;21.50;99.90;;;;;;5066132;28;20519;-77
2021/06/10 07:47:08;;;;;;;8.23;6.23;;;21.70;99.90;;;;;;5064309;28;20520;-77
2021/06/10 07:49:34;;;;;;;7.63;6.13;;;21.90;99.90;;;;;;5062345;28;20445;-78
2021/06/10 07:52:01;;;;;;;7.80;6.67;;;22.40;99.90;;;;;;5064431;28;20446;-79
2021/06/10 07:54:27;;;;;;;11.47;7.13;;;22.80;99.90;;;;;;5064071;28;20481;-78
2021/06/10 07:56:53;;;;;;;11.80;8.00;;;22.90;99.90;;;;;;5062608;28;20549;-79
2021/06/10 07:59:25;;;;;;;7.80;6.27;;;23.00;99.90;;;;;;5063624;28;20511;-79
2021/06/10 08:01:51;;;;;;;7.33;6.37;;;23.10;99.90;;;;;;5062616;28;20434;-80
2021/06/10 08:04:19;;;;;;;9.77;7.63;;;23.30;99.90;;;;;;5065783;28;20449;-80
2021/06/10 08:06:45;;;;;;;6.43;5.80;;;23.40;99.90;;;;;;5062603;28;20511;-78
2021/06/10 08:09:12;;;;;;;7.93;6.17;;;23.70;99.90;;;;;;5059672;28;20476;-78
2021/06/10 08:11:39;;;;;;;7.27;6.23;;;23.90;99.90;;;;;;5058590;28;20479;-78
2021/06/10 08:14:05;;;;;;;10.70;7.17;;;24.10;99.90;;;;;;5058768;28;20467;-78
2021/06/10 08:16:31;;;;;;;7.33;6.50;;;24.10;99.90;;;;;;5058386;28;20508;-78
2021/06/10 08:18:58;;;;;;;6.63;6.00;;;24.50;99.90;;;;;;5057680;28;20453;-78
2021/06/10 08:21:26;;;;;;;7.60;6.60;;;25.00;99.90;;;;;;5058071;28;20434;-78
2021/06/10 08:23:55;;;;;;;10.10;6.93;;;25.30;99.90;;;;;;5058601;28;20564;-78
2021/06/10 08:26:22;;;;;;;10.17;7.60;;;25.70;99.90;;;;;;5058016;28;20484;-78
2021/06/10 08:28:48;;;;;;;8.40;6.80;;;26.20;99.90;;;;;;5057584;28;20452;-79
2021/06/10 08:31:16;;;;;;;8.83;6.77;;;26.50;99.40;;;;;;5057535;28;20540;-78
2021/06/10 08:33:42;;;;;;;8.23;6.97;;;26.50;98.30;;;;;;5058693;28;20951;-78
2021/06/10 08:36:09;;;;;;;11.60;7.70;;;25.90;99.50;;;;;;5058290;28;20469;-78
2021/06/10 08:38:40;;;;;;;9.90;7.37;;;26.10;98.40;;;;;;5057377;28;20438;-78
2021/06/10 08:41:07;;;;;;;9.47;8.03;;;27.30;97.70;;;;;;5057854;28;20468;-78
2021/06/10 08:43:34;;;;;;;7.67;6.90;;;28.50;95.00;;;;;;5058322;28;20645;-78
2021/06/10 08:46:04;;;;;;;8.17;7.30;;;29.00;93.40;;;;;;5057631;28;20449;-78
2021/06/10 08:48:33;;;;;;;7.50;6.70;;;28.90;93.50;;;;;;5058189;28;20478;-79
2021/06/10 08:51:01;;;;;;;8.00;6.50;;;29.60;91.20;;;;;;5059119;28;20912;-78
2021/06/10 08:53:27;;;;;;;10.47;8.23;;;29.40;91.20;;;;;;5057419;28;20561;-78
2021/06/10 08:55:56;;;;;;;7.27;6.10;;;29.50;87.90;;;;;;5057758;28;21007;-78
2021/06/10 08:58:23;;;;;;;7.73;6.77;;;29.40;90.60;;;;;;5058835;28;20441;-79
2021/06/10 09:00:50;;;;;;;9.67;7.53;;;30.00;87.70;;;;;;5058571;28;20653;-78
2021/06/10 09:03:22;;;;;;;9.50;7.63;;;30.20;83.00;;;;;;5058740;28;20514;-78
2021/06/10 09:06:05;;;;;;;8.97;8.03;;;31.10;81.20;;;;;;5059658;28;20492;-79
2021/06/10 09:08:32;;;;;;;8.60;7.70;;;31.30;75.40;;;;;;5056882;28;20538;-79
2021/06/10 09:11:10;;;;;;;7.90;7.07;;;31.30;72.70;;;;;;5059412;28;20446;-79
2021/06/10 09:13:45;;;;;;;7.03;6.40;;;32.30;72.80;;;;;;5061332;28;20474;-78
2021/06/10 09:16:24;;;;;;;8.10;7.20;;;34.10;66.70;;;;;;5062969;28;20477;-79
2021/06/10 09:18:53;;;;;;;9.67;8.20;;;35.60;60.00;;;;;;5064068;28;20438;-79
2021/06/10 09:21:37;;;;;;;7.60;6.80;;;35.60;55.00;;;;;;5064222;28;20442;-79
2021/06/10 09:24:27;;;;;;;7.80;7.10;;;35.40;55.80;;;;;;5057311;28;20465;-77
2021/06/10 09:27:03;;;;;;;7.37;6.63;;;34.80;55.10;;;;;;5057380;28;20894;-79
2021/06/10 09:29:44;;;;;;;9.27;7.53;;;34.50;57.60;;;;;;5064120;28;20473;-79
2021/06/10 09:32:15;;;;;;;9.50;7.33;;;34.30;55.90;;;;;;5061875;28;20564;-77
2021/06/10 09:34:48;;;;;;;7.13;6.43;;;34.80;55.60;;;;;;5059733;28;20816;-78
2021/06/10 09:37:23;;;;;;;7.43;6.33;;;35.70;55.70;;;;;;5063969;28;20444;-78
2021/06/10 09:39:52;;;;;;;10.10;7.60;;;36.60;53.30;;;;;;5064211;28;20559;-78
2021/06/10 09:42:25;;;;;;;7.47;6.80;;;37.10;50.30;;;;;;5060308;28;20887;-77
2021/06/10 09:44:54;;;;;;;8.73;7.57;;;36.50;53.30;;;;;;5063913;28;20517;-78
2021/06/10 09:47:28;;;;;;;8.60;7.80;;;36.80;49.60;;;;;;5063838;28;20542;-78
2021/06/10 09:49:55;;;;;;;9.13;7.63;;;36.80;49.40;;;;;;5063809;28;20448;-78
2021/06/10 09:52:22;;;;;;;8.60;7.73;;;35.80;49.60;;;;;;5062314;28;20553;-78
2021/06/10 09:54:51;;;;;;;8.53;7.40;;;35.10;51.50;;;;;;5063152;28;20446;-78
2021/06/10 09:57:18;;;;;;;8.80;7.90;;;35.80;52.50;;;;;;5063797;28;20533;-78
2021/06/10 09:59:50;;;;;;;10.00;9.07;;;35.80;51.30;;;;;;5063075;28;20513;-78
2021/06/10 10:02:19;;;;;;;9.70;7.93;;;35.70;50.10;;;;;;5062944;28;20887;-79
2021/06/10 10:05:01;;;;;;;9.97;8.97;;;36.30;50.50;;;;;;5062442;28;20916;-78
2021/06/10 10:07:29;;;;;;;10.37;9.37;;;36.10;50.70;;;;;;5062801;28;20988;-79
2021/06/10 10:09:57;;;;;;;12.93;11.03;;;36.80;49.80;;;;;;5063562;28;20533;-78
2021/06/10 10:12:25;;;;;;;10.43;9.30;;;36.50;46.50;;;;;;5062217;28;20982;-78
2021/06/10 10:14:54;;;;;;;9.50;8.60;;;36.60;49.80;;;;;;5064125;28;20996;-79
2021/06/10 10:17:21;;;;;;;9.90;8.90;;;37.20;50.20;;;;;;5064698;28;20454;-78
2021/06/10 10:19:48;;;;;;;9.67;8.77;;;36.00;48.40;;;;;;5063155;28;20464;-78
2021/06/10 10:22:14;;;;;;;12.00;10.83;;;34.90;51.50;;;;;;5062875;28;20532;-78
2021/06/10 10:24:41;;;;;;;10.93;9.80;;;33.70;51.50;;;;;;5060724;28;20455;-78
2021/06/10 10:27:11;;;;;;;10.87;9.77;;;32.30;54.90;;;;;;5060101;28;20567;-78
2021/06/10 10:29:39;;;;;;;11.30;10.10;;;31.00;58.00;;;;;;5060112;28;20445;-78
2021/06/10 10:32:09;;;;;;;13.20;10.37;;;30.30;60.90;;;;;;5058493;28;20553;-78
2021/06/10 10:34:38;;;;;;;13.80;10.37;;;29.70;63.00;;;;;;5058959;28;20541;-77
2021/06/10 10:37:21;;;;;;;11.10;9.87;;;29.50;64.40;;;;;;5059416;28;20504;-78
2021/06/10 10:39:49;;;;;;;16.00;10.33;;;29.20;67.30;;;;;;5058629;28;20473;-78
2021/06/10 10:42:30;;;;;;;13.10;10.33;;;29.30;66.10;;;;;;5060633;28;20529;-78
2021/06/10 10:45:29;;;;;;;12.63;9.97;;;29.20;65.30;;;;;;5058529;28;20582;-78
2021/06/10 10:48:00;;;;;;;12.60;10.40;;;28.50;69.50;;;;;;5052785;28;20478;-78
2021/06/10 10:50:35;;;;;;;12.77;10.67;;;28.10;70.60;;;;;;5058038;28;20481;-78
2021/06/10 10:53:02;;;;;;;13.03;10.30;;;27.90;73.90;;;;;;5059917;28;20550;-78
2021/06/10 10:55:30;;;;;;;11.30;9.73;;;27.80;72.80;;;;;;5058034;28;20452;-78
2021/06/10 10:57:59;;;;;;;10.87;9.17;;;27.80;76.70;;;;;;5057641;28;20493;-78
2021/06/10 11:00:48;;;;;;;12.17;10.30;;;27.90;80.80;;;;;;5058148;28;20525;-78
2021/06/10 11:03:28;;;;;;;12.50;10.50;;;28.00;73.80;;;;;;5059794;28;20465;-78
2021/06/10 11:05:55;;;;;;;11.73;9.73;;;28.30;74.40;;;;;;5059200;28;20455;-77
2021/06/10 11:08:24;;;;;;;10.03;9.00;;;28.40;75.20;;;;;;5058933;28;20565;-78
2021/06/10 11:11:08;;;;;;;11.20;10.00;;;28.70;76.50;;;;;;5058661;28;20452;-78
2021/06/10 11:13:48;;;;;;;10.20;9.10;;;28.90;71.50;;;;;;5057755;28;20541;-78
2021/06/10 11:16:15;;;;;;;12.90;10.43;;;28.70;76.60;;;;;;5057879;28;20442;-78
2021/06/10 11:18:45;;;;;;;13.70;11.40;;;28.60;74.90;;;;;;5058417;28;20446;-78
2021/06/10 11:21:16;;;;;;;12.07;10.33;;;28.10;74.00;;;;;;5057733;28;20434;-78
2021/06/10 11:24:02;;;;;;;15.20;11.60;;;27.90;77.80;;;;;;5058206;28;20813;-78
2021/06/10 11:26:46;;;;;;;12.00;10.67;;;27.40;74.80;;;;;;5056644;28;20441;-78
2021/06/10 11:29:14;;;;;;;12.20;10.80;;;27.10;79.50;;;;;;5058728;28;20484;-78
2021/06/10 11:31:40;;;;;;;12.67;11.07;;;27.20;79.60;;;;;;5058552;28;20958;-78
2021/06/10 11:34:29;;;;;;;13.30;10.83;;;27.40;77.20;;;;;;5059573;28;20472;-78
2021/06/10 11:36:56;;;;;;;13.30;10.53;;;27.60;77.30;;;;;;5058484;28;20441;-78
2021/06/10 11:39:24;;;;;;;11.50;10.30;;;27.80;77.20;;;;;;5061333;28;20525;-78
2021/06/10 11:41:52;;;;;;;11.17;9.80;;;27.80;76.30;;;;;;5062089;28;20442;-77
2021/06/10 11:44:19;;;;;;;10.80;9.70;;;28.00;76.40;;;;;;5058043;28;20514;-78
2021/06/10 11:46:46;;;;;;;10.17;8.73;;;28.20;76.60;;;;;;5055506;28;20474;-78
2021/06/10 11:49:12;;;;;;;11.63;10.37;;;28.30;77.50;;;;;;5054974;28;20480;-78
2021/06/10 11:51:40;;;;;;;11.70;9.83;;;28.50;76.40;;;;;;5055262;28;20537;-78
2021/06/10 11:54:10;;;;;;;11.67;10.43;;;28.50;73.50;;;;;;5055502;28;20487;-78
2021/06/10 11:56:37;;;;;;;11.50;9.43;;;28.50;72.70;;;;;;5054472;28;20495;-78
2021/06/10 11:59:14;;;;;;;11.43;10.03;;;27.80;73.60;;;;;;5055066;28;20988;-78
2021/06/10 12:01:41;;;;;;;11.57;10.10;;;27.40;74.60;;;;;;5054668;28;20476;-78
2021/06/10 12:04:08;;;;;;;12.83;9.60;;;26.80;76.70;;;;;;5055135;28;20554;-78
2021/06/10 12:06:34;;;;;;;11.10;9.30;;;27.00;78.90;;;;;;5054467;28;20446;-78
2021/06/10 12:09:13;;;;;;;10.90;9.63;;;27.00;76.70;;;;;;5054853;28;20542;-77
2021/06/10 12:11:48;;;;;;;10.67;9.57;;;27.20;80.30;;;;;;5054267;28;20445;-78
2021/06/10 12:14:14;;;;;;;11.70;9.33;;;27.40;79.30;;;;;;5054784;28;20473;-78
2021/06/10 12:16:41;;;;;;;12.00;9.80;;;27.50;80.40;;;;;;5055029;28;20446;-78
2021/06/10 12:19:16;;;;;;;10.40;9.17;;;27.40;77.30;;;;;;5055101;28;20536;-78
2021/06/10 12:21:42;;;;;;;10.40;8.63;;;27.30;74.90;;;;;;5054538;28;20473;-78
2021/06/10 12:24:09;;;;;;;10.70;8.90;;;27.00;73.80;;;;;;5055028;28;20535;-78
2021/06/10 12:26:36;;;;;;;10.47;8.60;;;27.00;76.30;;;;;;5055103;28;20528;-78
2021/06/10 12:29:04;;;;;;;10.43;9.00;;;27.10;76.50;;;;;;5058323;28;20456;-78
2021/06/10 12:31:33;;;;;;;10.23;8.77;;;27.10;76.50;;;;;;5058288;28;20458;-78
2021/06/10 12:34:02;;;;;;;11.40;9.80;;;27.50;77.40;;;;;;5058311;28;20469;-78
2021/06/10 12:36:33;;;;;;;11.10;9.63;;;27.50;77.20;;;;;;5058094;28;20533;-78
2021/06/10 12:39:01;;;;;;;10.97;9.10;;;27.60;79.20;;;;;;5058269;28;20529;-78
2021/06/10 12:41:29;;;;;;;10.40;9.23;;;27.60;75.70;;;;;;5058183;28;20851;-78
2021/06/10 12:44:11;;;;;;;9.70;8.70;;;27.80;74.90;;;;;;5058367;28;20803;-78
2021/06/10 12:46:45;;;;;;;10.00;8.50;;;27.50;71.20;;;;;;5057945;28;20577;-78
2021/06/10 12:49:11;;;;;;;9.67;8.50;;;27.10;76.90;;;;;;5058329;28;20985;-78
2021/06/10 12:51:41;;;;;;;9.17;7.60;;;26.60;75.30;;;;;;5057359;28;20784;-78